createdAt,value
2019-01-24T00:01:19.202Z,26.90
2019-01-24T00:03:48.492Z,28.02
2019-01-24T00:06:18.119Z,27.52
2019-01-24T00:08:47.416Z,30.68
2019-01-24T00:11:16.702Z,29.75
2019-01-24T00:13:45.986Z,30.02
2019-01-24T00:16:15.296Z,28.35
2019-01-24T00:18:44.930Z,30.80
2019-01-24T00:21:14.535Z,30.70
2019-01-24T00:23:43.823Z,28.47
2019-01-24T00:26:13.460Z,30.85
2019-01-24T00:28:42.737Z,28.62
2019-01-24T00:31:12.354Z,29.85
2019-01-24T00:33:41.691Z,29.60
2019-01-24T00:36:11.258Z,30.02
2019-01-24T00:38:40.873Z,31.90
2019-01-24T00:41:10.170Z,30.00
2019-01-24T00:43:39.445Z,30.48
2019-01-24T00:46:09.083Z,34.55
2019-01-24T00:48:38.602Z,30.70
2019-01-24T00:51:07.898Z,32.00
2019-01-24T00:53:37.195Z,30.52
2019-01-24T00:56:06.785Z,31.55
2019-01-24T00:58:36.081Z,32.65
2019-01-24T01:01:05.804Z,30.20
2019-01-24T01:03:35.107Z,33.10
2019-01-24T01:06:05.169Z,31.23
2019-01-24T01:08:34.454Z,29.37
2019-01-24T01:11:03.810Z,31.33
2019-01-24T01:13:33.097Z,31.50
2019-01-24T01:16:02.639Z,32.38
2019-01-24T01:18:31.935Z,30.40
2019-01-24T01:21:01.277Z,31.97
2019-01-24T01:23:30.581Z,30.95
2019-01-24T01:25:59.861Z,30.40
2019-01-24T01:28:29.154Z,32.05
2019-01-24T01:30:58.441Z,31.85
2019-01-24T01:33:27.730Z,30.00
2019-01-24T01:35:57.018Z,31.93
2019-01-24T01:38:26.655Z,33.65
2019-01-24T01:40:57.183Z,33.28
2019-01-24T01:43:26.483Z,32.25
2019-01-24T01:45:55.770Z,30.77
2019-01-24T01:48:25.299Z,32.48
2019-01-24T01:50:54.831Z,30.60
2019-01-24T01:53:24.132Z,32.93
2019-01-24T01:55:53.410Z,31.20
2019-01-24T01:58:22.711Z,32.60
2019-01-24T02:00:51.990Z,32.85
2019-01-24T02:03:21.300Z,31.80
2019-01-24T02:05:50.582Z,30.00
2019-01-24T02:08:19.869Z,31.07
2019-01-24T02:10:49.150Z,31.35
2019-01-24T02:13:18.454Z,32.00
2019-01-24T02:15:48.002Z,29.45
2019-01-24T02:18:17.286Z,32.35
2019-01-24T02:20:46.569Z,32.95
2019-01-24T02:23:15.864Z,30.37
2019-01-24T02:25:45.154Z,29.00
2019-01-24T02:28:14.720Z,31.02
2019-01-24T02:30:44.003Z,32.40
2019-01-24T02:33:13.651Z,31.57
2019-01-24T02:35:42.978Z,32.70
2019-01-24T02:38:12.272Z,31.15
2019-01-24T02:40:41.571Z,32.48
2019-01-24T02:43:10.875Z,28.25
2019-01-24T02:45:40.431Z,31.73
2019-01-24T02:48:09.738Z,31.80
2019-01-24T02:50:39.033Z,30.90
2019-01-24T02:53:08.326Z,31.48
2019-01-24T02:55:37.607Z,29.63
2019-01-24T02:58:07.239Z,30.95
2019-01-24T03:00:36.855Z,33.08
2019-01-24T03:03:06.156Z,29.45
2019-01-24T03:05:35.442Z,30.70
2019-01-24T03:08:04.811Z,31.10
2019-01-24T03:10:34.372Z,31.37
2019-01-24T03:13:04.187Z,29.42
2019-01-24T03:15:33.711Z,29.02
2019-01-24T03:18:03.283Z,29.10
2019-01-24T03:20:32.569Z,28.20
2019-01-24T03:23:01.881Z,29.27
2019-01-24T03:25:31.156Z,27.10
2019-01-24T03:28:00.695Z,26.35
2019-01-24T03:30:29.984Z,27.50
2019-01-24T03:32:59.600Z,27.93
2019-01-24T03:35:29.121Z,28.32
2019-01-24T03:37:58.410Z,28.92
2019-01-24T03:40:27.699Z,29.60
2019-01-24T03:42:56.994Z,29.67
2019-01-24T03:45:26.283Z,28.27
2019-01-24T03:47:55.571Z,27.75
2019-01-24T03:50:24.859Z,29.95
2019-01-24T03:52:54.519Z,27.98
2019-01-24T03:55:24.130Z,33.40
2019-01-24T03:57:53.436Z,30.50
2019-01-24T04:00:24.472Z,29.32
2019-01-24T04:02:54.036Z,31.93
2019-01-24T04:05:23.497Z,31.20
2019-01-24T04:07:52.788Z,27.98
2019-01-24T04:10:22.922Z,30.43
2019-01-24T04:12:52.203Z,29.35
2019-01-24T04:15:23.741Z,28.83
2019-01-24T04:17:54.407Z,27.20
2019-01-24T04:20:24.101Z,28.95
2019-01-24T04:22:53.388Z,28.40
2019-01-24T04:25:22.685Z,30.40
2019-01-24T04:27:52.036Z,29.80
2019-01-24T04:30:22.741Z,31.05
2019-01-24T04:32:52.346Z,31.05
2019-01-24T04:35:22.977Z,30.97
2019-01-24T04:37:52.582Z,31.20
2019-01-24T04:40:21.950Z,29.98
2019-01-24T04:42:51.306Z,30.92
2019-01-24T04:45:21.735Z,29.37
2019-01-24T04:47:51.015Z,31.52
2019-01-24T04:50:20.314Z,27.75
2019-01-24T04:52:49.608Z,29.25
2019-01-24T04:55:19.673Z,26.23
2019-01-24T04:57:49.412Z,27.87
2019-01-24T05:00:24.713Z,30.77
2019-01-24T05:02:54.049Z,29.20
2019-01-24T05:05:28.014Z,27.05
2019-01-24T05:07:54.479Z,30.00
2019-01-24T05:10:23.771Z,29.90
2019-01-24T05:12:53.057Z,30.72
2019-01-24T05:15:22.759Z,30.25
2019-01-24T05:17:52.114Z,31.12
2019-01-24T05:20:21.405Z,30.43
2019-01-24T05:22:50.966Z,29.05
2019-01-24T05:25:20.254Z,32.10
2019-01-24T05:27:49.542Z,30.70
2019-01-24T05:30:22.578Z,30.50
2019-01-24T05:32:52.156Z,29.82
2019-01-24T05:35:21.754Z,32.10
2019-01-24T05:37:51.028Z,29.95
2019-01-24T05:40:20.329Z,31.00
2019-01-24T05:42:49.650Z,32.80
2019-01-24T05:45:19.307Z,29.57
2019-01-24T05:47:48.639Z,30.23
2019-01-24T05:50:18.195Z,30.60
2019-01-24T05:52:47.482Z,30.35
2019-01-24T05:55:16.761Z,30.85
2019-01-24T05:57:46.047Z,30.70
2019-01-24T06:00:19.566Z,32.30
2019-01-24T06:02:48.921Z,32.73
2019-01-24T06:05:18.542Z,32.40
2019-01-24T06:07:48.096Z,29.63
2019-01-24T06:10:18.257Z,31.50
2019-01-24T06:12:47.540Z,33.70
2019-01-24T06:15:18.249Z,31.40
2019-01-24T06:17:47.854Z,29.55
2019-01-24T06:20:17.467Z,29.52
2019-01-24T06:22:46.750Z,26.00
2019-01-24T06:25:16.217Z,29.32
2019-01-24T06:27:45.508Z,29.15
2019-01-24T06:30:20.792Z,27.20
2019-01-24T06:32:50.242Z,25.35
2019-01-24T06:35:19.613Z,28.20
2019-01-24T06:37:48.897Z,28.00
2019-01-24T06:40:18.635Z,27.15
2019-01-24T06:42:47.914Z,28.98
2019-01-24T06:45:22.210Z,28.80
2019-01-24T06:47:51.755Z,25.75
2019-01-24T06:50:22.014Z,26.23
2019-01-24T06:52:51.299Z,29.00
2019-01-24T06:55:27.770Z,28.50
2019-01-24T06:57:57.227Z,28.32
2019-01-24T07:00:26.591Z,28.62
2019-01-24T07:02:56.193Z,32.30
2019-01-24T07:05:25.770Z,30.12
2019-01-24T07:07:55.379Z,27.80
2019-01-24T07:10:24.841Z,27.52
2019-01-24T07:12:54.134Z,28.30
2019-01-24T07:15:24.819Z,30.80
2019-01-24T07:17:54.422Z,29.98
2019-01-24T07:20:23.727Z,28.85
2019-01-24T07:22:53.332Z,29.18
2019-01-24T07:25:28.168Z,28.38
2019-01-24T07:27:57.454Z,27.67
2019-01-24T07:30:27.081Z,26.15
2019-01-24T07:32:56.362Z,27.35
2019-01-24T07:35:25.655Z,26.73
2019-01-24T07:37:54.933Z,28.50
2019-01-24T07:40:24.216Z,26.75
2019-01-24T07:42:53.522Z,28.40
2019-01-24T07:45:25.708Z,27.48
2019-01-24T07:47:55.165Z,30.00
2019-01-24T07:50:24.472Z,27.10
2019-01-24T07:52:53.743Z,28.57
2019-01-24T07:55:23.036Z,28.20
2019-01-24T07:57:52.323Z,27.17
2019-01-24T08:00:24.927Z,28.20
2019-01-24T08:02:54.222Z,27.58
2019-01-24T08:05:24.758Z,27.90
2019-01-24T08:07:54.364Z,26.73
2019-01-24T08:10:24.482Z,26.52
2019-01-24T08:12:54.085Z,26.23
2019-01-24T08:15:23.876Z,27.80
2019-01-24T08:17:53.167Z,27.55
2019-01-24T08:20:24.971Z,29.30
2019-01-24T08:22:54.485Z,32.63
2019-01-24T08:25:24.388Z,30.05
2019-01-24T08:27:53.991Z,29.42
2019-01-24T08:30:28.978Z,24.52
2019-01-24T08:32:58.640Z,27.70
2019-01-24T08:35:28.067Z,27.60
2019-01-24T08:37:57.700Z,28.70
2019-01-24T08:40:26.995Z,26.73
2019-01-24T08:42:56.281Z,27.27
2019-01-24T08:45:25.626Z,20.77
2019-01-24T08:47:54.926Z,25.72
2019-01-24T08:50:26.374Z,26.25
2019-01-24T08:52:55.925Z,30.02
2019-01-24T08:55:36.024Z,28.92
2019-01-24T08:58:05.978Z,29.27
2019-01-24T09:00:35.263Z,27.55
2019-01-24T09:03:05.408Z,25.27
2019-01-24T09:05:35.007Z,28.35
2019-01-24T09:08:04.825Z,27.98
2019-01-24T09:10:36.056Z,29.07
2019-01-24T09:13:07.193Z,25.72
2019-01-24T09:15:37.148Z,26.35
2019-01-24T09:18:06.692Z,28.60
2019-01-24T09:20:36.242Z,26.97
2019-01-24T09:23:05.953Z,27.73
2019-01-24T09:25:35.407Z,26.50
2019-01-24T09:28:05.139Z,27.90
2019-01-24T09:30:34.418Z,27.52
2019-01-24T09:33:04.050Z,27.93
2019-01-24T09:35:33.342Z,26.55
2019-01-24T09:38:02.630Z,26.37
2019-01-24T09:40:31.915Z,26.17
2019-01-24T09:43:01.197Z,27.48
2019-01-24T09:45:31.703Z,26.55
2019-01-24T09:48:01.829Z,27.77
2019-01-24T09:50:31.172Z,27.75
2019-01-24T09:53:00.737Z,27.93
2019-01-24T09:55:30.014Z,30.30
2019-01-24T09:57:59.638Z,28.12
2019-01-24T10:00:30.970Z,29.70
2019-01-24T10:03:00.703Z,28.52
2019-01-24T10:05:30.308Z,27.15
2019-01-24T10:07:59.599Z,27.27
2019-01-24T10:10:29.189Z,28.27
2019-01-24T10:12:59.036Z,29.42
2019-01-24T10:15:28.590Z,26.95
2019-01-24T10:17:57.869Z,26.15
2019-01-24T10:20:27.994Z,26.30
2019-01-24T10:22:57.464Z,27.30
2019-01-24T10:25:35.380Z,28.77
2019-01-24T10:28:05.283Z,28.30
2019-01-24T10:30:35.106Z,26.85
2019-01-24T10:33:04.655Z,27.02
2019-01-24T10:35:34.008Z,28.90
2019-01-24T10:38:03.293Z,27.82
2019-01-24T10:40:33.235Z,29.85
2019-01-24T10:43:02.534Z,31.20
2019-01-24T10:45:32.127Z,27.20
2019-01-24T10:48:01.433Z,29.05
2019-01-24T10:50:31.189Z,28.47
2019-01-24T10:53:00.486Z,27.98
2019-01-24T10:55:30.251Z,28.60
2019-01-24T10:58:00.826Z,28.20
2019-01-24T11:00:32.567Z,27.55
2019-01-24T11:03:05.427Z,27.52
2019-01-24T11:05:34.711Z,26.45
2019-01-24T11:08:04.783Z,27.02
2019-01-24T11:10:34.643Z,28.20
2019-01-24T11:13:04.204Z,28.65
2019-01-24T11:15:33.658Z,29.40
2019-01-24T11:18:02.966Z,27.55
2019-01-24T11:20:32.291Z,27.98
2019-01-24T11:23:01.879Z,28.73
2019-01-24T11:25:31.507Z,27.35
2019-01-24T11:28:00.811Z,28.98
2019-01-24T11:30:31.119Z,29.27
2019-01-24T11:33:00.483Z,28.77
2019-01-24T11:35:32.831Z,27.58
2019-01-24T11:38:02.155Z,28.62
2019-01-24T11:40:31.446Z,26.57
2019-01-24T11:43:00.915Z,26.35
2019-01-24T11:45:33.246Z,25.85
2019-01-24T11:48:02.804Z,29.37
2019-01-24T11:50:32.390Z,27.15
2019-01-24T11:53:01.687Z,27.07
2019-01-24T11:55:31.304Z,27.85
2019-01-24T11:58:00.889Z,27.48
2019-01-24T12:00:34.287Z,28.50
2019-01-24T12:03:04.203Z,28.23
2019-01-24T12:05:33.490Z,29.63
2019-01-24T12:08:02.780Z,28.35
2019-01-24T12:10:32.234Z,26.93
2019-01-24T12:13:01.528Z,28.98
2019-01-24T12:15:31.849Z,28.12
2019-01-24T12:18:01.375Z,29.15
2019-01-24T12:20:30.947Z,29.70
2019-01-24T12:23:00.549Z,30.80
2019-01-24T12:25:29.829Z,30.00
2019-01-24T12:27:59.132Z,30.27
2019-01-24T12:30:36.149Z,34.00
2019-01-24T12:33:06.086Z,32.90
2019-01-24T12:35:35.366Z,30.95
2019-01-24T12:38:05.532Z,35.43
2019-01-24T12:40:35.049Z,35.45
2019-01-24T12:43:04.809Z,31.62
2019-01-24T12:45:35.959Z,33.90
2019-01-24T12:48:06.372Z,32.83
2019-01-24T12:50:35.817Z,33.00
2019-01-24T12:53:06.378Z,35.58
2019-01-24T12:55:35.662Z,33.58
2019-01-24T12:58:05.400Z,33.30
2019-01-24T13:00:36.774Z,34.18
2019-01-24T13:03:06.291Z,35.28
2019-01-24T13:05:35.975Z,34.53
2019-01-24T13:08:05.520Z,34.43
2019-01-24T13:10:34.820Z,35.98
2019-01-24T13:13:04.870Z,35.13
2019-01-24T13:15:34.506Z,38.45
2019-01-24T13:18:04.527Z,34.75
2019-01-24T13:20:33.832Z,36.48
2019-01-24T13:23:03.165Z,35.40
2019-01-24T13:25:33.491Z,39.25
2019-01-24T13:28:02.778Z,35.63
2019-01-24T13:30:33.612Z,39.23
2019-01-24T13:33:03.516Z,37.85
2019-01-24T13:35:32.824Z,42.15
2019-01-24T13:38:02.111Z,41.10
2019-01-24T13:40:31.848Z,39.05
2019-01-24T13:43:01.490Z,39.35
2019-01-24T13:45:33.026Z,38.40
2019-01-24T13:48:02.799Z,39.80
2019-01-24T13:50:32.102Z,37.55
2019-01-24T13:53:01.382Z,48.85
2019-01-24T13:55:30.678Z,43.58
2019-01-24T13:57:59.966Z,43.73
2019-01-24T14:00:31.598Z,41.95
2019-01-24T14:03:03.973Z,43.23
2019-01-24T14:05:33.271Z,44.73
2019-01-24T14:08:02.838Z,43.60
2019-01-24T14:10:32.435Z,45.73
2019-01-24T14:13:01.722Z,43.40
2019-01-24T14:15:31.014Z,44.58
2019-01-24T14:18:00.354Z,45.28
2019-01-24T14:20:29.650Z,48.15
2019-01-24T14:22:59.250Z,44.73
2019-01-24T14:25:28.857Z,45.63
2019-01-24T14:27:58.145Z,45.33
2019-01-24T14:30:28.781Z,43.08
2019-01-24T14:32:58.394Z,45.48
2019-01-24T14:35:28.013Z,42.10
2019-01-24T14:37:57.715Z,46.08
2019-01-24T14:40:27.054Z,49.67
2019-01-24T14:42:57.140Z,46.90
2019-01-24T14:45:27.677Z,46.60
2019-01-24T14:47:57.476Z,47.90
2019-01-24T14:50:28.615Z,49.10
2019-01-24T14:52:58.222Z,49.98
2019-01-24T14:55:27.693Z,46.85
2019-01-24T14:57:56.986Z,45.95
2019-01-24T15:00:38.498Z,48.78
2019-01-24T15:03:09.055Z,47.65
2019-01-24T15:05:38.660Z,45.78
2019-01-24T15:08:08.275Z,47.40
2019-01-24T15:10:37.883Z,47.95
2019-01-24T15:13:07.494Z,47.10
2019-01-24T15:15:37.099Z,46.50
2019-01-24T15:18:06.817Z,49.55
2019-01-24T15:20:36.143Z,50.17
2019-01-24T15:23:05.711Z,47.88
2019-01-24T15:25:35.169Z,50.33
2019-01-24T15:28:04.630Z,47.00
2019-01-24T15:30:33.927Z,47.50
2019-01-24T15:33:03.224Z,45.63
2019-01-24T15:35:32.522Z,50.38
2019-01-24T15:38:01.813Z,50.95
2019-01-24T15:40:32.951Z,48.10
2019-01-24T15:43:02.740Z,49.50
2019-01-24T15:45:32.163Z,46.60
2019-01-24T15:48:01.618Z,47.33
2019-01-24T15:50:30.922Z,46.88
2019-01-24T15:53:00.219Z,47.75
2019-01-24T15:55:29.511Z,47.55
2019-01-24T15:57:58.789Z,48.00
2019-01-24T16:00:30.631Z,47.35
2019-01-24T16:03:00.004Z,48.98
2019-01-24T16:05:30.270Z,47.30
2019-01-24T16:08:02.001Z,44.30
2019-01-24T16:10:30.562Z,47.33
2019-01-24T16:12:59.854Z,46.37
2019-01-24T16:15:36.175Z,46.13
2019-01-24T16:18:07.832Z,51.13
2019-01-24T16:20:37.650Z,45.30
2019-01-24T16:23:06.928Z,47.43
2019-01-24T16:25:37.061Z,43.08
2019-01-24T16:28:06.674Z,37.83
2019-01-24T16:30:37.006Z,35.00
2019-01-24T16:33:07.357Z,57.80
2019-01-24T16:35:37.180Z,112.40
2019-01-24T16:38:09.473Z,67.05
2019-01-24T16:40:37.752Z,40.00
2019-01-24T16:43:07.282Z,122.17
2019-01-24T16:45:36.573Z,42.27
2019-01-24T16:48:06.446Z,46.85
2019-01-24T16:50:36.823Z,54.03
2019-01-24T16:53:06.111Z,42.60
2019-01-24T16:55:35.427Z,46.53
2019-01-24T16:58:05.569Z,45.63
2019-01-24T17:00:38.186Z,46.13
2019-01-24T17:03:07.853Z,68.17
2019-01-24T17:05:37.167Z,57.80
2019-01-24T17:08:07.412Z,62.20
2019-01-24T17:10:36.995Z,47.23
2019-01-24T17:13:06.830Z,57.73
2019-01-24T17:15:37.046Z,41.58
2019-01-24T17:18:06.665Z,42.25
2019-01-24T17:20:35.970Z,42.98
2019-01-24T17:23:06.053Z,44.45
2019-01-24T17:25:35.342Z,38.75
2019-01-24T17:28:05.601Z,34.95
2019-01-24T17:30:36.228Z,36.80
2019-01-24T17:33:07.049Z,37.93
2019-01-24T17:35:36.920Z,36.77
2019-01-24T17:38:06.770Z,37.05
2019-01-24T17:40:36.502Z,36.93
2019-01-24T17:43:06.357Z,34.53
2019-01-24T17:45:35.697Z,37.00
2019-01-24T17:48:06.639Z,36.15
2019-01-24T17:50:35.915Z,56.48
2019-01-24T17:53:05.219Z,49.75
2019-01-24T17:55:43.286Z,36.28
2019-01-24T17:58:12.592Z,37.30
2019-01-24T18:00:43.505Z,39.55
2019-01-24T18:03:12.806Z,39.33
2019-01-24T18:05:42.153Z,38.73
2019-01-24T18:08:11.447Z,39.90
2019-01-24T18:10:40.733Z,41.10
2019-01-24T18:13:10.153Z,35.90
2019-01-24T18:15:39.518Z,42.98
2019-01-24T18:18:11.549Z,36.98
2019-01-24T18:20:40.820Z,37.48
2019-01-24T18:23:10.999Z,36.33
2019-01-24T18:25:40.466Z,36.77
2019-01-24T18:28:11.217Z,39.78
2019-01-24T18:30:40.546Z,38.73
2019-01-24T18:33:09.847Z,35.52
2019-01-24T18:35:39.622Z,39.50
2019-01-24T18:38:10.254Z,36.17
2019-01-24T18:40:39.966Z,40.38
2019-01-24T18:43:13.480Z,38.25
2019-01-24T18:45:51.472Z,38.05
2019-01-24T18:48:20.911Z,38.95
2019-01-24T18:50:50.206Z,40.60
2019-01-24T18:53:19.785Z,39.23
2019-01-24T18:55:49.070Z,39.05
2019-01-24T18:58:18.536Z,38.23
2019-01-24T19:00:47.889Z,36.30
2019-01-24T19:03:17.499Z,39.42
2019-01-24T19:05:47.102Z,37.55
2019-01-24T19:08:16.473Z,40.28
2019-01-24T19:10:45.846Z,40.95
2019-01-24T19:13:15.202Z,37.60
2019-01-24T19:15:44.520Z,37.95
2019-01-24T19:18:13.893Z,38.05
2019-01-24T19:20:43.532Z,39.40
2019-01-24T19:23:12.996Z,37.00
2019-01-24T19:25:42.760Z,37.28
2019-01-24T19:28:12.050Z,37.28
2019-01-24T19:30:41.343Z,39.75
2019-01-24T19:33:10.808Z,36.50
2019-01-24T19:35:40.085Z,39.03
2019-01-24T19:38:09.655Z,35.85
2019-01-24T19:40:39.467Z,39.48
2019-01-24T19:43:09.080Z,36.68
2019-01-24T19:45:38.367Z,36.83
2019-01-24T19:48:07.731Z,39.42
2019-01-24T19:50:37.171Z,39.27
2019-01-24T19:53:07.823Z,36.50
2019-01-24T19:55:37.797Z,35.48
2019-01-24T19:58:07.543Z,38.02
2019-01-24T20:00:36.831Z,36.83
2019-01-24T20:03:06.566Z,38.13
2019-01-24T20:05:36.230Z,38.58
2019-01-24T20:08:06.409Z,37.42
2019-01-24T20:10:36.160Z,36.95
2019-01-24T20:13:05.473Z,38.23
2019-01-24T20:15:34.811Z,34.20
2019-01-24T20:18:05.468Z,34.70
2019-01-24T20:20:35.157Z,37.42
2019-01-24T20:23:04.977Z,37.33
2019-01-24T20:25:34.331Z,38.25
2019-01-24T20:28:05.245Z,37.65
2019-01-24T20:30:35.012Z,39.65
2019-01-24T20:33:05.555Z,38.38
2019-01-24T20:35:38.075Z,38.95
2019-01-24T20:38:08.910Z,40.28
2019-01-24T20:40:39.468Z,37.23
2019-01-24T20:43:10.509Z,39.78
2019-01-24T20:45:40.539Z,41.83
2019-01-24T20:48:10.074Z,36.45
2019-01-24T20:50:39.776Z,37.53
2019-01-24T20:53:09.499Z,37.90
2019-01-24T20:55:38.928Z,37.75
2019-01-24T20:58:08.224Z,40.67
2019-01-24T21:00:37.654Z,38.48
2019-01-24T21:03:07.215Z,37.60
2019-01-24T21:05:36.503Z,39.03
2019-01-24T21:08:06.271Z,37.78
2019-01-24T21:10:35.543Z,41.00
2019-01-24T21:13:05.302Z,38.70
2019-01-24T21:15:34.605Z,40.65
2019-01-24T21:18:04.166Z,40.65
2019-01-24T21:20:33.702Z,40.67
2019-01-24T21:23:03.063Z,39.53
2019-01-24T21:25:32.341Z,39.18
2019-01-24T21:28:01.642Z,40.78
2019-01-24T21:30:34.410Z,38.83
2019-01-24T21:33:04.529Z,41.40
2019-01-24T21:35:33.826Z,40.28
2019-01-24T21:38:03.498Z,39.40
2019-01-24T21:40:33.755Z,38.90
2019-01-24T21:43:03.351Z,40.88
2019-01-24T21:45:34.994Z,43.08
2019-01-24T21:48:05.248Z,43.83
2019-01-24T21:50:35.171Z,38.92
2019-01-24T21:53:05.201Z,40.65
2019-01-24T21:55:34.631Z,41.08
2019-01-24T21:58:05.414Z,39.20
2019-01-24T22:00:34.710Z,39.20
2019-01-24T22:03:05.143Z,39.08
2019-01-24T22:05:34.518Z,41.40
2019-01-24T22:08:04.259Z,38.90
2019-01-24T22:10:33.553Z,38.63
2019-01-24T22:13:02.871Z,40.58
2019-01-24T22:15:32.671Z,40.33
2019-01-24T22:18:02.286Z,39.10
2019-01-24T22:20:31.883Z,40.88
2019-01-24T22:23:01.206Z,37.93
2019-01-24T22:25:32.884Z,38.63
2019-01-24T22:28:02.502Z,38.10
2019-01-24T22:30:36.178Z,38.95
2019-01-24T22:33:06.312Z,38.85
2019-01-24T22:35:35.665Z,38.75
2019-01-24T22:38:07.407Z,39.95
2019-01-24T22:40:36.750Z,38.50
2019-01-24T22:43:06.468Z,39.30
2019-01-24T22:45:36.059Z,39.13
2019-01-24T22:48:06.190Z,39.08
2019-01-24T22:50:35.497Z,40.20
2019-01-24T22:53:05.551Z,38.28
2019-01-24T22:55:34.853Z,38.23
2019-01-24T22:58:06.039Z,39.98
2019-01-24T23:00:53.438Z,36.65
2019-01-24T23:03:37.884Z,37.58
2019-01-24T23:06:07.371Z,38.48
2019-01-24T23:08:36.660Z,38.10
2019-01-24T23:11:06.403Z,39.20
2019-01-24T23:13:35.942Z,39.27
2019-01-24T23:16:05.817Z,40.65
2019-01-24T23:18:35.530Z,41.80
2019-01-24T23:21:05.532Z,39.25
2019-01-24T23:23:34.822Z,39.73
2019-01-24T23:26:04.679Z,36.33
2019-01-24T23:28:34.379Z,39.70
2019-01-24T23:31:05.025Z,38.20
2019-01-24T23:33:34.794Z,40.45
2019-01-24T23:36:04.916Z,36.35
2019-01-24T23:38:34.260Z,38.08
2019-01-24T23:41:03.802Z,38.70
2019-01-24T23:43:33.476Z,38.65
2019-01-24T23:46:03.279Z,39.35
2019-01-24T23:48:32.915Z,38.38
2019-01-24T23:51:02.214Z,39.15
2019-01-24T23:53:31.511Z,40.52
2019-01-24T23:56:00.805Z,36.90
2019-01-24T23:58:30.426Z,37.53
